Time;durP1;ratioP1;P1;durP2;ratioP2;P2;SDS_P1;SDS_P2;PMS_P1;PMS_P2;Temp;Humidity;BMP_temperature;BMP_pressure;BME280_temperature;BME280_humidity;BME280_pressure;Samples;Min_cycle;Max_cycle;Signal;HPM_P1;HPM_P2
2023/03/07 00:02:20;;;;;;;0.60;0.60;;;;;;;;;;5100117;28;20214;-75
2023/03/07 00:04:48;;;;;;;0.60;0.60;;;;;;;;;;5101722;28;20188;-76
2023/03/07 00:07:19;;;;;;;0.60;0.60;;;;;;;;;;5101533;28;20226;-76
2023/03/07 00:09:47;;;;;;;0.60;0.60;;;;;;;;;;5108249;28;20238;-78
2023/03/07 00:12:14;;;;;;;0.70;0.60;;;;;;;;;;5098128;28;20570;-77
2023/03/07 00:14:41;;;;;;;0.60;0.60;;;;;;;;;;5103756;28;20273;-75
2023/03/07 00:17:08;;;;;;;0.60;0.60;;;;;;;;;;5102832;28;20192;-77
2023/03/07 00:19:35;;;;;;;0.60;0.60;;;;;;;;;;5108069;28;20211;-75
2023/03/07 00:22:02;;;;;;;0.70;0.70;;;;;;;;;;5099252;28;20735;-76
2023/03/07 00:24:29;;;;;;;0.60;0.60;;;;;;;;;;5101357;28;20186;-76
2023/03/07 00:26:57;;;;;;;0.70;0.70;;;;;;;;;;5101845;28;20211;-76
2023/03/07 00:29:25;;;;;;;0.60;0.60;;;;;;;;;;5100127;28;20287;-75
2023/03/07 00:31:52;;;;;;;0.60;0.60;;;;;;;;;;5096890;28;20291;-77
2023/03/07 00:34:19;;;;;;;0.70;0.70;;;;;;;;;;5101483;28;20195;-76
2023/03/07 00:36:46;;;;;;;0.70;0.70;;;;;;;;;;5118191;27;20220;-75
2023/03/07 00:39:14;;;;;;;0.98;0.98;;;;;;;;;;5105664;28;20253;-75
2023/03/07 00:41:40;;;;;;;0.60;0.60;;;;;;;;;;5094096;28;20222;-77
2023/03/07 00:44:09;;;;;;;0.70;0.60;;;;;;;;;;5100181;28;20240;-75
2023/03/07 00:46:36;;;;;;;0.70;0.70;;;;;;;;;;5092515;28;20219;-77
2023/03/07 00:49:02;;;;;;;0.60;0.60;;;;;;;;;;5109389;28;20204;-76
2023/03/07 00:51:29;;;;;;;0.60;0.60;;;;;;;;;;5085207;28;20199;-76
2023/03/07 00:53:56;;;;;;;0.70;0.60;;;;;;;;;;5106262;28;20207;-76
2023/03/07 00:56:24;;;;;;;0.70;0.68;;;;;;;;;;5105567;28;20207;-75
2023/03/07 00:58:51;;;;;;;0.80;0.80;;;;;;;;;;5106275;28;20204;-75
2023/03/07 01:01:21;;;;;;;0.60;0.60;;;;;;;;;;5098879;28;20192;-76
2023/03/07 01:03:52;;;;;;;0.70;0.70;;;;;;;;;;5100265;28;20553;-76
2023/03/07 01:06:20;;;;;;;0.70;0.60;;;;;;;;;;5097398;28;20219;-75
2023/03/07 01:08:47;;;;;;;0.70;0.60;;;;;;;;;;5084975;28;20231;-76
2023/03/07 01:11:15;;;;;;;0.70;0.70;;;;;;;;;;5100097;28;20667;-74
2023/03/07 01:13:46;;;;;;;0.60;0.60;;;;;;;;;;5090594;28;20222;-76
2023/03/07 01:16:14;;;;;;;0.70;0.60;;;;;;;;;;5100568;28;20196;-75
2023/03/07 01:18:44;;;;;;;0.60;0.60;;;;;;;;;;5095025;28;20249;-77
2023/03/07 01:21:12;;;;;;;0.60;0.60;;;;;;;;;;5094790;28;20218;-76
2023/03/07 01:23:40;;;;;;;0.60;0.60;;;;;;;;;;5078747;28;20219;-74
2023/03/07 01:26:29;;;;;;;0.60;0.60;;;;;;;;;;5095633;28;20223;-75
2023/03/07 01:28:58;;;;;;;0.60;0.60;;;;;;;;;;5099882;28;20631;-78
2023/03/07 01:31:26;;;;;;;0.70;0.70;;;;;;;;;;5119984;27;20192;-75
2023/03/07 01:34:13;;;;;;;0.60;0.60;;;;;;;;;;5102456;28;20202;-75
2023/03/07 01:36:40;;;;;;;0.60;0.60;;;;;;;;;;5095899;28;20210;-76
2023/03/07 01:39:09;;;;;;;0.60;0.60;;;;;;;;;;5099259;28;20573;-76
2023/03/07 01:41:57;;;;;;;0.60;0.60;;;;;;;;;;5100969;28;20333;-76
2023/03/07 01:44:28;;;;;;;0.68;0.60;;;;;;;;;;5097585;28;20533;-76
2023/03/07 01:46:55;;;;;;;2.17;1.98;;;;;;;;;;5099375;28;20555;-76
2023/03/07 01:49:51;;;;;;;0.65;0.65;;;;;;;;;;5100810;28;20680;-77
2023/03/07 01:52:20;;;;;;;0.60;0.60;;;;;;;;;;5081299;28;20341;-76
2023/03/07 01:54:54;;;;;;;0.60;0.60;;;;;;;;;;5095975;28;20191;-76
2023/03/07 01:57:23;;;;;;;0.70;0.70;;;;;;;;;;5106057;28;20226;-74
2023/03/07 01:59:53;;;;;;;0.60;0.60;;;;;;;;;;5105929;28;20202;-75
2023/03/07 02:02:42;;;;;;;0.70;0.70;;;;;;;;;;5102105;28;20225;-77
2023/03/07 02:05:17;;;;;;;0.70;0.70;;;;;;;;;;5097738;28;20587;-76
2023/03/07 02:07:47;;;;;;;0.60;0.60;;;;;;;;;;5100882;28;20220;-74
2023/03/07 02:10:35;;;;;;;0.60;0.60;;;;;;;;;;5100589;28;20179;-76
2023/03/07 02:13:02;;;;;;;1.90;1.17;;;;;;;;;;5099941;28;20203;-76
2023/03/07 02:15:29;;;;;;;0.65;0.65;;;;;;;;;;5101302;28;20294;-74
2023/03/07 02:17:57;;;;;;;0.60;0.60;;;;;;;;;;5105409;28;20204;-74
2023/03/07 02:20:32;;;;;;;0.73;0.73;;;;;;;;;;5096987;28;20204;-78
2023/03/07 02:23:03;;;;;;;0.60;0.60;;;;;;;;;;5101119;28;20802;-75
2023/03/07 02:26:00;;;;;;;0.60;0.60;;;;;;;;;;5100044;28;20268;-75
2023/03/07 02:28:51;;;;;;;0.60;0.60;;;;;;;;;;5099349;28;20556;-76
2023/03/07 02:31:24;;;;;;;0.65;0.65;;;;;;;;;;5107619;28;20245;-75
2023/03/07 02:33:53;;;;;;;0.93;0.93;;;;;;;;;;5093546;28;20196;-76
2023/03/07 02:36:28;;;;;;;0.80;0.80;;;;;;;;;;5086992;28;20752;-75
2023/03/07 02:39:20;;;;;;;0.70;0.70;;;;;;;;;;5116721;27;20966;-76
2023/03/07 02:42:28;;;;;;;0.70;0.70;;;;;;;;;;5104092;28;20194;-75
2023/03/07 02:45:10;;;;;;;0.70;0.70;;;;;;;;;;5099383;28;20287;-78
2023/03/07 02:47:41;;;;;;;0.60;0.60;;;;;;;;;;5102786;28;20288;-77
2023/03/07 02:50:16;;;;;;;0.60;0.60;;;;;;;;;;5106417;28;20204;-77
2023/03/07 02:52:50;;;;;;;0.60;0.60;;;;;;;;;;5094775;28;20702;-77
2023/03/07 02:55:22;;;;;;;0.75;0.75;;;;;;;;;;5102627;28;20210;-76
2023/03/07 02:57:57;;;;;;;0.60;0.60;;;;;;;;;;5109848;27;20204;-79
2023/03/07 03:00:32;;;;;;;0.60;0.60;;;;;;;;;;5109385;28;20208;-76
2023/03/07 03:03:03;;;;;;;0.70;0.70;;;;;;;;;;5097391;28;20241;-76
2023/03/07 03:05:31;;;;;;;2.70;2.50;;;;;;;;;;5091937;28;20196;-76
2023/03/07 03:08:19;;;;;;;0.70;0.70;;;;;;;;;;5101135;28;20222;-74
2023/03/07 03:10:50;;;;;;;0.60;0.60;;;;;;;;;;5081580;28;20189;-75
2023/03/07 03:13:37;;;;;;;0.90;0.90;;;;;;;;;;5084903;28;20200;-77
2023/03/07 03:16:08;;;;;;;0.80;0.80;;;;;;;;;;5101990;28;20596;-75
2023/03/07 03:18:39;;;;;;;0.70;0.70;;;;;;;;;;5117242;27;20195;-76
2023/03/07 03:21:13;;;;;;;0.60;0.60;;;;;;;;;;5096252;28;20220;-75
2023/03/07 03:23:44;;;;;;;0.60;0.60;;;;;;;;;;5100158;28;20577;-77
2023/03/07 03:26:37;;;;;;;0.60;0.60;;;;;;;;;;5101187;28;20216;-78
2023/03/07 03:29:11;;;;;;;0.63;0.63;;;;;;;;;;5110280;28;20198;-74
2023/03/07 03:31:43;;;;;;;0.60;0.60;;;;;;;;;;5101645;28;20271;-77
2023/03/07 03:34:13;;;;;;;0.60;0.60;;;;;;;;;;5109797;28;20250;-74
2023/03/07 03:37:26;;;;;;;0.80;0.80;;;;;;;;;;5092042;28;20214;-75
2023/03/07 03:40:16;;;;;;;0.70;0.60;;;;;;;;;;5100611;28;20265;-78
2023/03/07 03:42:46;;;;;;;1.30;1.20;;;;;;;;;;5106775;28;20223;-76
2023/03/07 03:45:18;;;;;;;0.70;0.68;;;;;;;;;;5108326;28;20246;-77
2023/03/07 03:47:52;;;;;;;0.60;0.60;;;;;;;;;;5110782;28;20235;-76
2023/03/07 03:50:22;;;;;;;0.70;0.70;;;;;;;;;;5093114;28;20736;-75
2023/03/07 03:52:55;;;;;;;0.60;0.60;;;;;;;;;;5105274;28;20234;-78
2023/03/07 03:55:24;;;;;;;0.60;0.60;;;;;;;;;;5106883;28;20195;-75
2023/03/07 03:58:00;;;;;;;0.60;0.60;;;;;;;;;;5101324;28;20261;-75
2023/03/07 04:00:34;;;;;;;0.70;0.70;;;;;;;;;;5103220;28;20235;-77
2023/03/07 04:03:08;;;;;;;0.93;0.93;;;;;;;;;;5106818;28;20204;-75
2023/03/07 04:05:36;;;;;;;1.48;1.38;;;;;;;;;;5108814;28;20200;-76
2023/03/07 04:08:04;;;;;;;0.60;0.60;;;;;;;;;;5092873;28;20234;-81
2023/03/07 04:10:35;;;;;;;0.60;0.60;;;;;;;;;;5103589;28;20219;-80
2023/03/07 04:13:02;;;;;;;0.60;0.60;;;;;;;;;;5104155;28;20196;-79
2023/03/07 04:15:29;;;;;;;0.70;0.70;;;;;;;;;;5104575;28;20797;-78
2023/03/07 04:17:56;;;;;;;0.70;0.70;;;;;;;;;;5091149;28;20621;-77
2023/03/07 04:20:25;;;;;;;0.93;0.93;;;;;;;;;;5104135;28;20298;-79
2023/03/07 04:22:51;;;;;;;0.60;0.60;;;;;;;;;;5104723;28;20216;-77
2023/03/07 04:25:19;;;;;;;0.70;0.70;;;;;;;;;;5102221;28;20203;-79
2023/03/07 04:27:46;;;;;;;1.55;1.23;;;;;;;;;;5105494;28;20216;-81
2023/03/07 04:30:13;;;;;;;0.60;0.60;;;;;;;;;;5099318;28;20824;-78
2023/03/07 04:32:41;;;;;;;0.60;0.60;;;;;;;;;;5097885;28;20192;-79
2023/03/07 04:35:09;;;;;;;1.00;0.93;;;;;;;;;;5107422;28;20200;-80
2023/03/07 04:37:37;;;;;;;0.65;0.65;;;;;;;;;;5108713;28;20567;-80
2023/03/07 04:40:05;;;;;;;0.60;0.60;;;;;;;;;;5106979;28;20233;-80
2023/03/07 04:42:32;;;;;;;0.70;0.70;;;;;;;;;;5098678;28;20253;-77
2023/03/07 04:44:58;;;;;;;0.65;0.63;;;;;;;;;;5100532;28;20195;-77
2023/03/07 04:47:25;;;;;;;0.60;0.60;;;;;;;;;;5100596;28;20788;-79
2023/03/07 04:49:53;;;;;;;0.60;0.60;;;;;;;;;;5108448;28;20241;-79
2023/03/07 04:52:20;;;;;;;0.70;0.70;;;;;;;;;;5103517;28;20219;-79
2023/03/07 04:54:49;;;;;;;0.60;0.60;;;;;;;;;;5104746;28;20207;-77
2023/03/07 04:57:16;;;;;;;0.60;0.60;;;;;;;;;;5104236;28;20204;-78
2023/03/07 04:59:43;;;;;;;0.80;0.80;;;;;;;;;;5097524;28;20191;-79
2023/03/07 05:02:11;;;;;;;0.60;0.60;;;;;;;;;;5096707;28;20199;-77
2023/03/07 05:04:40;;;;;;;0.70;0.70;;;;;;;;;;5104600;28;20208;-79
2023/03/07 05:07:08;;;;;;;0.60;0.60;;;;;;;;;;5092091;28;20699;-79
2023/03/07 05:09:34;;;;;;;0.60;0.60;;;;;;;;;;5099455;28;20204;-75
2023/03/07 05:12:04;;;;;;;0.63;0.63;;;;;;;;;;5098850;28;20763;-78
2023/03/07 05:14:31;;;;;;;0.60;0.60;;;;;;;;;;5087285;28;20192;-77
2023/03/07 05:17:19;;;;;;;0.60;0.60;;;;;;;;;;5096517;28;20196;-78
2023/03/07 05:19:47;;;;;;;0.60;0.60;;;;;;;;;;5099913;28;20227;-80
2023/03/07 05:22:14;;;;;;;0.70;0.60;;;;;;;;;;5113795;27;20220;-79
2023/03/07 05:24:42;;;;;;;0.63;0.63;;;;;;;;;;5100662;28;20202;-78
2023/03/07 05:27:29;;;;;;;0.60;0.60;;;;;;;;;;5099006;28;20340;-79
2023/03/07 05:29:56;;;;;;;0.60;0.60;;;;;;;;;;5103645;28;20204;-79
2023/03/07 05:32:24;;;;;;;0.60;0.60;;;;;;;;;;5087331;28;20191;-78
2023/03/07 05:34:54;;;;;;;0.93;0.93;;;;;;;;;;5099348;28;20187;-78
2023/03/07 05:37:21;;;;;;;0.60;0.60;;;;;;;;;;5098945;28;20230;-78
2023/03/07 05:39:49;;;;;;;0.73;0.73;;;;;;;;;;5100712;28;20244;-78
2023/03/07 05:42:16;;;;;;;0.60;0.60;;;;;;;;;;5101096;28;20566;-77
2023/03/07 05:45:06;;;;;;;0.60;0.60;;;;;;;;;;5098010;28;20261;-76
2023/03/07 05:47:32;;;;;;;0.60;0.60;;;;;;;;;;5095381;28;20212;-77
2023/03/07 05:50:00;;;;;;;0.60;0.60;;;;;;;;;;5103634;28;20645;-78
2023/03/07 05:52:30;;;;;;;0.60;0.60;;;;;;;;;;5089127;28;20680;-76
2023/03/07 05:54:57;;;;;;;0.70;0.70;;;;;;;;;;5092186;28;20620;-77
2023/03/07 05:57:23;;;;;;;0.60;0.60;;;;;;;;;;5102895;28;20282;-77
2023/03/07 05:59:51;;;;;;;6.57;2.55;;;;;;;;;;5104300;28;20192;-78
2023/03/07 06:02:19;;;;;;;0.88;0.88;;;;;;;;;;5099671;28;20335;-77
2023/03/07 06:04:46;;;;;;;0.60;0.60;;;;;;;;;;5100591;28;20281;-77
2023/03/07 06:07:14;;;;;;;0.63;0.60;;;;;;;;;;5110209;28;20254;-77
2023/03/07 06:09:42;;;;;;;0.60;0.60;;;;;;;;;;5096942;28;20208;-78
2023/03/07 06:12:09;;;;;;;0.60;0.60;;;;;;;;;;5104367;28;20184;-78
2023/03/07 06:14:36;;;;;;;0.60;0.60;;;;;;;;;;5104572;28;20192;-77
2023/03/07 06:17:08;;;;;;;0.70;0.70;;;;;;;;;;5100242;28;20226;-78
2023/03/07 06:19:37;;;;;;;0.60;0.60;;;;;;;;;;5093208;28;20207;-77
2023/03/07 06:22:04;;;;;;;0.60;0.60;;;;;;;;;;5105004;28;20490;-79
2023/03/07 06:24:31;;;;;;;0.60;0.60;;;;;;;;;;5103887;28;20207;-77
2023/03/07 06:27:01;;;;;;;0.60;0.60;;;;;;;;;;5100603;28;20589;-79
2023/03/07 06:29:28;;;;;;;0.70;0.70;;;;;;;;;;5091313;28;21179;-79
2023/03/07 06:31:56;;;;;;;0.60;0.60;;;;;;;;;;5102996;28;20202;-79
2023/03/07 06:34:23;;;;;;;0.60;0.60;;;;;;;;;;5107838;28;20656;-78
2023/03/07 06:36:51;;;;;;;0.60;0.60;;;;;;;;;;5104926;28;20284;-78
2023/03/07 06:39:20;;;;;;;0.70;0.63;;;;;;;;;;5088689;28;20188;-79
2023/03/07 06:42:08;;;;;;;0.60;0.60;;;;;;;;;;5109983;27;20183;-80
2023/03/07 06:44:35;;;;;;;0.60;0.60;;;;;;;;;;5098191;28;20176;-77
2023/03/07 06:47:01;;;;;;;0.60;0.60;;;;;;;;;;5108788;28;20203;-78
2023/03/07 06:49:29;;;;;;;0.70;0.70;;;;;;;;;;5102957;28;20646;-79
2023/03/07 06:51:58;;;;;;;0.60;0.60;;;;;;;;;;5101450;28;20237;-79
2023/03/07 06:54:43;;;;;;;0.70;0.70;;;;;;;;;;5092272;28;20667;-78
2023/03/07 06:57:10;;;;;;;0.60;0.60;;;;;;;;;;5105570;28;20647;-78
2023/03/07 06:59:38;;;;;;;0.60;0.60;;;;;;;;;;5108709;28;20511;-78
2023/03/07 07:02:05;;;;;;;0.70;0.70;;;;;;;;;;5109527;28;20214;-80
2023/03/07 07:04:33;;;;;;;0.70;0.70;;;;;;;;;;5101903;28;20187;-77
2023/03/07 07:07:02;;;;;;;0.60;0.60;;;;;;;;;;5100184;28;20203;-76
2023/03/07 07:09:29;;;;;;;0.60;0.60;;;;;;;;;;5099762;28;20219;-79
2023/03/07 07:11:59;;;;;;;0.60;0.60;;;;;;;;;;5102434;28;20196;-79
2023/03/07 07:14:27;;;;;;;0.60;0.60;;;;;;;;;;5110057;28;20539;-78
2023/03/07 07:16:55;;;;;;;4.50;1.80;;;;;;;;;;5085047;28;20682;-79
2023/03/07 07:19:21;;;;;;;0.80;0.80;;;;;;;;;;5086504;28;20206;-78
2023/03/07 07:21:50;;;;;;;0.60;0.60;;;;;;;;;;5103794;28;20216;-77
2023/03/07 07:24:20;;;;;;;0.60;0.60;;;;;;;;;;5107703;28;20590;-76
2023/03/07 07:26:47;;;;;;;0.70;0.70;;;;;;;;;;5092138;28;20206;-79
2023/03/07 07:29:15;;;;;;;0.60;0.60;;;;;;;;;;5096761;28;20212;-76
2023/03/07 07:31:45;;;;;;;0.70;0.70;;;;;;;;;;5107421;28;20203;-78
2023/03/07 07:34:17;;;;;;;0.60;0.60;;;;;;;;;;5100523;28;20269;-78
2023/03/07 07:36:46;;;;;;;0.70;0.60;;;;;;;;;;5091783;28;20232;-78
2023/03/07 07:39:14;;;;;;;0.70;0.70;;;;;;;;;;5110026;28;20232;-76
2023/03/07 07:41:44;;;;;;;0.60;0.60;;;;;;;;;;5105256;28;20220;-77
2023/03/07 07:44:12;;;;;;;0.60;0.60;;;;;;;;;;5100885;28;20276;-76
2023/03/07 07:46:51;;;;;;;0.70;0.70;;;;;;;;;;5097606;28;20671;-77
2023/03/07 07:49:40;;;;;;;0.70;0.70;;;;;;;;;;5107243;28;20421;-77
2023/03/07 07:52:07;;;;;;;0.60;0.60;;;;;;;;;;5105108;28;20744;-78
2023/03/07 07:54:37;;;;;;;0.60;0.60;;;;;;;;;;5106869;28;20200;-77
2023/03/07 07:57:05;;;;;;;0.90;0.90;;;;;;;;;;5099566;28;20766;-77
2023/03/07 07:59:33;;;;;;;0.70;0.70;;;;;;;;;;5103603;28;20188;-75
2023/03/07 08:02:02;;;;;;;0.68;0.68;;;;;;;;;;5093741;28;20298;-77
2023/03/07 08:04:48;;;;;;;0.60;0.60;;;;;;;;;;5104854;28;20261;-76
2023/03/07 08:07:15;;;;;;;0.60;0.60;;;;;;;;;;5094056;28;20470;-77
2023/03/07 08:09:43;;;;;;;0.60;0.60;;;;;;;;;;5096862;28;20207;-75
2023/03/07 08:12:12;;;;;;;0.60;0.60;;;;;;;;;;5108298;28;20191;-77
2023/03/07 08:14:41;;;;;;;0.70;0.70;;;;;;;;;;5105583;28;20200;-77
2023/03/07 08:17:08;;;;;;;0.60;0.60;;;;;;;;;;5105709;28;20191;-75
2023/03/07 08:20:06;;;;;;;0.60;0.60;;;;;;;;;;5105090;28;20743;-76
2023/03/07 08:22:34;;;;;;;0.60;0.60;;;;;;;;;;5093662;28;20215;-75
2023/03/07 08:25:01;;;;;;;1.80;1.70;;;;;;;;;;5100269;28;20195;-76
2023/03/07 08:27:29;;;;;;;0.70;0.70;;;;;;;;;;5103261;28;20223;-78
2023/03/07 08:29:56;;;;;;;0.60;0.60;;;;;;;;;;5095102;28;20438;-76
2023/03/07 08:32:24;;;;;;;0.60;0.60;;;;;;;;;;5104970;28;20199;-78
2023/03/07 08:34:51;;;;;;;1.13;1.10;;;;;;;;;;5099275;28;20503;-77
2023/03/07 08:37:18;;;;;;;0.65;0.63;;;;;;;;;;5102486;28;20539;-77
2023/03/07 08:39:44;;;;;;;0.60;0.60;;;;;;;;;;5100674;28;20195;-76
2023/03/07 08:42:13;;;;;;;0.60;0.60;;;;;;;;;;5105235;28;20242;-77
2023/03/07 08:44:41;;;;;;;0.70;0.70;;;;;;;;;;5095734;28;20448;-76
2023/03/07 08:47:10;;;;;;;0.60;0.60;;;;;;;;;;5108910;28;20477;-76
2023/03/07 08:49:37;;;;;;;0.60;0.60;;;;;;;;;;5091538;28;20473;-77
2023/03/07 08:52:04;;;;;;;0.60;0.60;;;;;;;;;;5078240;28;20466;-76
2023/03/07 08:54:32;;;;;;;0.60;0.60;;;;;;;;;;5106504;28;20480;-78
2023/03/07 08:56:59;;;;;;;0.70;0.70;;;;;;;;;;5099323;28;20783;-76
2023/03/07 08:59:33;;;;;;;0.60;0.60;;;;;;;;;;5104549;28;20453;-74
2023/03/07 09:02:02;;;;;;;0.70;0.70;;;;;;;;;;5100631;28;20453;-75
2023/03/07 09:04:30;;;;;;;0.70;0.70;;;;;;;;;;5096401;28;20796;-76
2023/03/07 09:06:57;;;;;;;0.60;0.60;;;;;;;;;;5100957;28;20891;-77
2023/03/07 09:09:27;;;;;;;0.60;0.60;;;;;;;;;;5091417;28;20879;-77
2023/03/07 09:11:54;;;;;;;0.70;0.70;;;;;;;;;;5101930;28;20457;-76
2023/03/07 09:14:26;;;;;;;0.60;0.60;;;;;;;;;;5098983;28;20461;-77
2023/03/07 09:16:53;;;;;;;0.60;0.50;;;;;;;;;;5095445;28;20457;-76
2023/03/07 09:19:42;;;;;;;0.77;0.77;;;;;;;;;;5101068;28;20443;-75
2023/03/07 09:22:09;;;;;;;0.60;0.60;;;;;;;;;;5102622;28;20473;-76
2023/03/07 09:24:36;;;;;;;0.60;0.60;;;;;;;;;;5105621;28;20437;-77
2023/03/07 09:27:04;;;;;;;0.70;0.70;;;;;;;;;;5105287;28;20451;-78
2023/03/07 09:29:31;;;;;;;0.80;0.80;;;;;;;;;;5098795;28;21274;-76
2023/03/07 09:32:01;;;;;;;0.60;0.60;;;;;;;;;;5103863;28;20445;-77
2023/03/07 09:34:28;;;;;;;0.60;0.60;;;;;;;;;;5100302;28;20444;-76
2023/03/07 09:37:18;;;;;;;0.70;0.70;;;;;;;;;;5098670;28;20458;-76
2023/03/07 09:39:47;;;;;;;0.60;0.60;;;;;;;;;;5089787;28;20478;-76
2023/03/07 09:42:20;;;;;;;0.60;0.60;;;;;;;;;;5095799;28;20494;-77
2023/03/07 09:45:03;;;;;;;4.00;1.33;;;;;;;;;;5106102;28;20461;-78
2023/03/07 09:48:00;;;;;;;0.60;0.60;;;;;;;;;;5098769;28;20436;-75
2023/03/07 09:50:31;;;;;;;0.70;0.60;;;;;;;;;;5089400;28;20961;-76
2023/03/07 09:53:00;;;;;;;0.60;0.60;;;;;;;;;;5107215;28;20461;-77
2023/03/07 09:55:29;;;;;;;0.70;0.67;;;;;;;;;;5096770;28;20793;-76
2023/03/07 09:57:57;;;;;;;0.60;0.60;;;;;;;;;;5100122;28;20483;-76
2023/03/07 10:00:25;;;;;;;0.70;0.70;;;;;;;;;;5102168;28;21344;-78
2023/03/07 10:02:56;;;;;;;0.60;0.60;;;;;;;;;;5093321;28;20527;-76
2023/03/07 10:05:30;;;;;;;0.60;0.60;;;;;;;;;;5099347;28;20874;-75
2023/03/07 10:07:59;;;;;;;0.70;0.70;;;;;;;;;;5104741;28;20508;-77
2023/03/07 10:10:32;;;;;;;0.60;0.60;;;;;;;;;;5100884;28;20518;-76
2023/03/07 10:13:06;;;;;;;0.63;0.60;;;;;;;;;;5098600;28;20429;-77
2023/03/07 10:15:37;;;;;;;0.70;0.60;;;;;;;;;;5101258;28;20452;-77
2023/03/07 10:18:29;;;;;;;0.70;0.60;;;;;;;;;;5099483;28;20883;-76
2023/03/07 10:21:03;;;;;;;2.60;1.07;;;;;;;;;;5095282;28;20450;-76
2023/03/07 10:23:50;;;;;;;0.70;0.60;;;;;;;;;;5097499;28;20460;-76
2023/03/07 10:26:20;;;;;;;0.60;0.60;;;;;;;;;;5100716;28;20438;-76
2023/03/07 10:28:49;;;;;;;0.70;0.70;;;;;;;;;;5097823;28;20803;-74
2023/03/07 10:31:19;;;;;;;0.60;0.60;;;;;;;;;;5096407;28;20491;-77
2023/03/07 10:33:49;;;;;;;0.60;0.60;;;;;;;;;;5099169;28;20506;-78
2023/03/07 10:36:18;;;;;;;0.60;0.60;;;;;;;;;;5097708;28;20513;-77
2023/03/07 10:38:54;;;;;;;0.83;0.83;;;;;;;;;;5089139;28;21095;-76
2023/03/07 10:41:41;;;;;;;0.80;0.80;;;;;;;;;;5100770;28;20473;-77
2023/03/07 10:44:30;;;;;;;0.60;0.60;;;;;;;;;;5106208;28;20445;-80
2023/03/07 10:46:58;;;;;;;0.60;0.60;;;;;;;;;;5099281;28;20441;-79
2023/03/07 10:49:27;;;;;;;0.63;0.60;;;;;;;;;;5105644;28;20529;-79
2023/03/07 10:51:57;;;;;;;0.70;0.60;;;;;;;;;;5093897;28;20476;-79
2023/03/07 10:54:28;;;;;;;0.60;0.60;;;;;;;;;;5102104;28;20437;-80
2023/03/07 10:57:06;;;;;;;0.60;0.60;;;;;;;;;;5100763;28;20437;-79
2023/03/07 10:59:35;;;;;;;0.90;0.90;;;;;;;;;;5102240;28;20467;-81
2023/03/07 11:02:17;;;;;;;0.70;0.60;;;;;;;;;;5094823;28;20485;-80
2023/03/07 11:04:45;;;;;;;0.60;0.60;;;;;;;;;;5115803;27;20426;-80
2023/03/07 11:07:27;;;;;;;0.60;0.60;;;;;;;;;;5103044;28;20809;-79
2023/03/07 11:09:56;;;;;;;0.60;0.60;;;;;;;;;;5092613;28;20542;-79
2023/03/07 11:12:23;;;;;;;0.60;0.60;;;;;;;;;;5106079;28;20490;-81
2023/03/07 11:14:52;;;;;;;0.60;0.60;;;;;;;;;;5097364;28;20480;-81
2023/03/07 11:17:20;;;;;;;0.90;0.90;;;;;;;;;;5103032;28;20445;-81
2023/03/07 11:19:47;;;;;;;0.70;0.70;;;;;;;;;;5102865;28;20453;-80
2023/03/07 11:22:19;;;;;;;0.70;0.60;;;;;;;;;;5102795;28;20457;-82
2023/03/07 11:24:48;;;;;;;0.60;0.60;;;;;;;;;;5091811;28;20466;-80
2023/03/07 11:27:22;;;;;;;1.07;1.07;;;;;;;;;;5104228;28;20430;-81
2023/03/07 11:30:03;;;;;;;0.70;0.63;;;;;;;;;;5102954;28;20472;-80
2023/03/07 11:32:32;;;;;;;0.60;0.60;;;;;;;;;;5100323;28;20445;-81
2023/03/07 11:35:03;;;;;;;0.70;0.70;;;;;;;;;;5101268;28;20429;-79
2023/03/07 11:37:33;;;;;;;1.33;1.23;;;;;;;;;;5099588;28;20450;-81
2023/03/07 11:40:14;;;;;;;1.17;1.07;;;;;;;;;;5103015;28;20827;-80
2023/03/07 11:42:46;;;;;;;0.60;0.60;;;;;;;;;;5108369;28;20442;-81
2023/03/07 11:45:23;;;;;;;0.60;0.60;;;;;;;;;;5097627;28;20449;-79
2023/03/07 11:47:53;;;;;;;0.70;0.70;;;;;;;;;;5097008;28;20474;-80
2023/03/07 11:50:21;;;;;;;0.60;0.60;;;;;;;;;;5099336;28;20460;-79
2023/03/07 11:53:06;;;;;;;0.60;0.60;;;;;;;;;;5098948;28;20243;-79
2023/03/07 11:55:36;;;;;;;0.60;0.60;;;;;;;;;;5096740;28;20442;-82
2023/03/07 11:58:22;;;;;;;0.60;0.60;;;;;;;;;;5097552;28;20453;-80
2023/03/07 12:00:55;;;;;;;0.60;0.55;;;;;;;;;;5102596;27;20871;-81
2023/03/07 12:03:32;;;;;;;0.60;0.60;;;;;;;;;;5099674;28;20196;-81
2023/03/07 12:06:23;;;;;;;0.60;0.60;;;;;;;;;;5101645;28;20437;-81
2023/03/07 12:08:55;;;;;;;0.68;0.68;;;;;;;;;;5092448;27;20254;-81
2023/03/07 12:11:31;;;;;;;0.60;0.60;;;;;;;;;;5098903;28;20203;-81
2023/03/07 12:14:06;;;;;;;0.60;0.60;;;;;;;;;;5101680;28;20757;-82
2023/03/07 12:16:40;;;;;;;1.17;1.08;;;;;;;;;;5099384;28;20277;-81
2023/03/07 12:19:31;;;;;;;0.60;0.60;;;;;;;;;;5109305;28;20202;-81
2023/03/07 12:22:04;;;;;;;0.60;0.60;;;;;;;;;;5092519;28;20231;-82
2023/03/07 12:24:34;;;;;;;0.60;0.60;;;;;;;;;;5102994;28;20196;-82
2023/03/07 12:27:04;;;;;;;0.80;0.80;;;;;;;;;;5106190;28;20281;-81
2023/03/07 12:29:34;;;;;;;0.60;0.60;;;;;;;;;;5102041;28;21045;-81
2023/03/07 12:32:03;;;;;;;0.60;0.60;;;;;;;;;;5090261;28;20261;-81
2023/03/07 12:34:33;;;;;;;0.63;0.63;;;;;;;;;;5102277;28;20275;-82
2023/03/07 12:37:04;;;;;;;0.60;0.60;;;;;;;;;;5092404;28;20739;-82
2023/03/07 12:39:54;;;;;;;0.60;0.60;;;;;;;;;;5098808;28;20207;-81
2023/03/07 12:42:28;;;;;;;0.60;0.60;;;;;;;;;;5100767;28;20233;-81
2023/03/07 12:45:02;;;;;;;0.70;0.68;;;;;;;;;;5098542;28;20207;-82
2023/03/07 12:47:32;;;;;;;0.60;0.60;;;;;;;;;;5098364;28;20184;-81
2023/03/07 12:50:05;;;;;;;0.60;0.60;;;;;;;;;;5097074;28;20265;-82
2023/03/07 12:52:37;;;;;;;0.60;0.60;;;;;;;;;;5099724;28;20216;-82
2023/03/07 12:55:07;;;;;;;0.60;0.60;;;;;;;;;;5090613;28;20618;-81
2023/03/07 12:57:36;;;;;;;0.60;0.60;;;;;;;;;;5093343;28;20702;-82
2023/03/07 13:00:10;;;;;;;0.60;0.50;;;;;;;;;;5103427;28;20275;-80
2023/03/07 13:02:40;;;;;;;0.60;0.60;;;;;;;;;;5101662;28;20572;-81
2023/03/07 13:05:15;;;;;;;0.80;0.80;;;;;;;;;;5106322;28;20207;-80
2023/03/07 13:07:43;;;;;;;0.60;0.60;;;;;;;;;;5089246;28;20229;-80
2023/03/07 13:10:13;;;;;;;0.60;0.60;;;;;;;;;;5079957;28;20224;-80
2023/03/07 13:12:40;;;;;;;0.60;0.60;;;;;;;;;;5100748;28;20195;-80
2023/03/07 13:15:29;;;;;;;0.60;0.60;;;;;;;;;;5078388;28;20634;-80
2023/03/07 13:17:59;;;;;;;0.60;0.60;;;;;;;;;;5082892;28;20227;-80
2023/03/07 13:20:35;;;;;;;0.80;0.80;;;;;;;;;;5108016;28;20726;-78
2023/03/07 13:23:23;;;;;;;0.60;0.60;;;;;;;;;;5100088;28;20262;-81
2023/03/07 13:26:09;;;;;;;0.70;0.70;;;;;;;;;;5097386;28;20601;-80
2023/03/07 13:28:41;;;;;;;0.70;0.70;;;;;;;;;;5074973;28;20223;-80
2023/03/07 13:31:34;;;;;;;0.70;0.70;;;;;;;;;;5091850;28;20207;-80
2023/03/07 13:34:25;;;;;;;0.60;0.60;;;;;;;;;;5093895;28;20196;-79
2023/03/07 13:37:47;;;;;;;0.60;0.60;;;;;;;;;;5089641;28;20311;-80
2023/03/07 13:40:36;;;;;;;0.60;0.60;;;;;;;;;;5089812;28;20206;-78
2023/03/07 13:43:58;;;;;;;0.65;0.65;;;;;;;;;;5100141;28;20185;-78
2023/03/07 13:46:29;;;;;;;0.60;0.60;;;;;;;;;;5087364;28;20540;-79
2023/03/07 13:48:59;;;;;;;0.70;0.70;;;;;;;;;;5102919;28;20735;-80
2023/03/07 13:51:27;;;;;;;0.70;0.70;;;;;;;;;;5095649;28;20211;-79
2023/03/07 13:53:59;;;;;;;0.70;0.70;;;;;;;;;;5097748;28;20550;-78
2023/03/07 13:56:29;;;;;;;0.65;0.65;;;;;;;;;;5101197;28;20195;-82
2023/03/07 13:58:58;;;;;;;0.60;0.57;;;;;;;;;;5106647;28;20207;-80
2023/03/07 14:01:27;;;;;;;0.70;0.70;;;;;;;;;;5099829;28;20240;-80
2023/03/07 14:03:56;;;;;;;0.68;0.68;;;;;;;;;;5097825;28;20206;-79
2023/03/07 14:06:28;;;;;;;0.60;0.60;;;;;;;;;;5094960;28;20296;-80
2023/03/07 14:08:56;;;;;;;0.60;0.60;;;;;;;;;;5100194;28;20190;-81
2023/03/07 14:11:27;;;;;;;0.60;0.60;;;;;;;;;;5102675;28;20811;-79
2023/03/07 14:14:10;;;;;;;0.70;0.70;;;;;;;;;;5077235;28;20675;-79
2023/03/07 14:16:46;;;;;;;0.70;0.70;;;;;;;;;;5083481;28;20227;-80
2023/03/07 14:19:22;;;;;;;0.77;0.77;;;;;;;;;;5096376;28;20198;-81
2023/03/07 14:21:52;;;;;;;0.60;0.60;;;;;;;;;;5080352;28;20226;-80
2023/03/07 14:24:38;;;;;;;0.60;0.60;;;;;;;;;;5089183;28;20226;-79
2023/03/07 14:27:27;;;;;;;0.70;0.60;;;;;;;;;;5100346;28;20194;-79
2023/03/07 14:29:55;;;;;;;0.73;0.73;;;;;;;;;;5087321;28;20242;-79
2023/03/07 14:32:25;;;;;;;0.68;0.60;;;;;;;;;;5109918;28;20204;-79
2023/03/07 14:34:53;;;;;;;0.60;0.60;;;;;;;;;;5102215;28;20206;-79
2023/03/07 14:37:22;;;;;;;0.68;0.65;;;;;;;;;;5109136;28;20208;-81
2023/03/07 14:39:57;;;;;;;0.63;0.60;;;;;;;;;;5109906;28;20208;-81
2023/03/07 14:42:48;;;;;;;0.70;0.60;;;;;;;;;;5105454;28;20195;-80
2023/03/07 14:45:23;;;;;;;0.70;0.70;;;;;;;;;;5102140;28;20191;-82
2023/03/07 14:48:03;;;;;;;0.63;0.60;;;;;;;;;;5098948;28;20205;-79
2023/03/07 14:50:30;;;;;;;0.70;0.70;;;;;;;;;;5102636;28;20664;-79
2023/03/07 14:53:22;;;;;;;0.70;0.70;;;;;;;;;;5104238;28;20372;-80
2023/03/07 14:55:50;;;;;;;0.80;0.80;;;;;;;;;;5101068;27;20248;-79
2023/03/07 14:58:18;;;;;;;0.70;0.70;;;;;;;;;;5099100;28;20196;-80
2023/03/07 15:00:45;;;;;;;0.70;0.70;;;;;;;;;;5102633;28;20192;-79
2023/03/07 15:03:13;;;;;;;0.70;0.70;;;;;;;;;;5104407;28;20269;-80
2023/03/07 15:05:50;;;;;;;0.60;0.60;;;;;;;;;;5102998;28;20196;-79
2023/03/07 15:08:21;;;;;;;0.60;0.60;;;;;;;;;;5083622;28;20695;-78
2023/03/07 15:11:14;;;;;;;0.70;0.70;;;;;;;;;;5100598;28;20204;-79
2023/03/07 15:13:44;;;;;;;0.65;0.60;;;;;;;;;;5094084;28;20681;-80
2023/03/07 15:16:15;;;;;;;0.80;0.80;;;;;;;;;;5109469;28;20636;-79